Mount Hope — C4QH2 — position and weather

sailwx.info

Track history (hours):
 
Tides and Currents Weather Stations Pressure Air Temp Water Temp Dewpoint Dewpoint Depression Visibility Wind Speed Wind Dir Waves Ship Positions

Mount Hope

Last reported at 2014-Dec-14 01:07 UTC. Time now 2014-Dec-21 04:44 UTC.
Position N 50°25' W 000°28'.

Length 182 m; draft 11.8 m.

Type: Tanker. MMSI: 210137000.

Date/timePositionNaut miles runAvg speedWind from/ knotsBaromVisibWave heightAir tempDewpointWater temp
2014-Dec-14 01:07N 50°25' W 000°28'1911.6
2014-Dec-13 23:30N 50°30' E 000°00'1212.5
2014-Dec-13 22:33N 50°33' E 000°18'1313.3
2014-Dec-13 21:33N 50°38' E 000°37'1413.8
2014-Dec-13 20:33N 50°47' E 000°55'1413.6
2014-Dec-13 19:33N 50°56' E 001°11'1212.5
2014-Dec-13 18:33N 51°04' E 001°26'1111.3
2014-Dec-13 17:33N 51°11' E 001°40'1111.3
2014-Dec-13 16:33N 51°19' E 001°52'10 9.8
2014-Dec-13 15:33N 51°23' E 002°06'1211.8
2014-Dec-13 14:33N 51°22' E 002°25'1212.5
2014-Dec-13 13:33N 51°22' E 002°45'1212.0
2014-Dec-13 12:32N 51°25' E 003°04'1313.3
2014-Dec-13 11:33N 51°25' E 003°25'1110.9
2014-Dec-13 10:34N 51°25' E 003°42'9 9.4
2014-Dec-13 09:34N 51°24' E 003°57'8 8.3
2014-Dec-13 08:34N 51°24' E 004°10'5 5.0
2014-Dec-13 07:34N 51°21' E 004°17'0 0.4
2014-Dec-13 06:33N 51°21' E 004°18'5 4.9
2014-Dec-13 05:33N 51°16' E 004°21'0 0.1
2014-Dec-13 04:29N 51°16' E 004°21'0 0.0
2014-Dec-13 03:29N 51°16' E 004°21'0 0.0
2014-Dec-13 02:32N 51°16' E 004°21'0 0.0
2014-Dec-13 01:32N 51°16' E 004°21'0 0.0
2014-Dec-13 00:32N 51°16' E 004°21'0 0.0
2014-Dec-12 23:32N 51°16' E 004°21'0 0.0
2014-Dec-12 22:32N 51°16' E 004°21'0 0.0
2014-Dec-12 21:32N 51°16' E 004°21'0 0.0
2014-Dec-12 20:29N 51°16' E 004°21'0 0.0
2014-Dec-12 19:32N 51°16' E 004°21'0 0.0
2014-Dec-12 18:32N 51°16' E 004°21'0 0.0
2014-Dec-12 17:32N 51°16' E 004°21'0 0.0
2014-Dec-12 16:32N 51°16' E 004°21'0 0.0
2014-Dec-12 15:32N 51°16' E 004°21'0 0.0
2014-Dec-12 14:32N 51°16' E 004°21'0 0.0
2014-Dec-12 13:32N 51°16' E 004°21'0 0.0
2014-Dec-12 12:32N 51°16' E 004°21'0 0.0
2014-Dec-12 11:32N 51°16' E 004°21'0 0.0
2014-Dec-12 10:29N 51°16' E 004°21'0 0.0
2014-Dec-12 09:32N 51°16' E 004°21'0 0.0
2014-Dec-12 08:29N 51°16' E 004°21'0 0.0
2014-Dec-12 07:32N 51°16' E 004°21'0 0.0
2014-Dec-12 06:29N 51°16' E 004°21'0 0.0
2014-Dec-12 05:29N 51°16' E 004°21'0 0.0
2014-Dec-12 04:32N 51°16' E 004°21'0 0.0
2014-Dec-12 03:32N 51°16' E 004°21'0 0.0
2014-Dec-12 02:32N 51°16' E 004°21'0 0.0
2014-Dec-12 01:32N 51°16' E 004°21'0 0.0
2014-Dec-12 00:32N 51°16' E 004°21'0 0.0
2014-Dec-11 23:32N 51°16' E 004°21'0 0.0
2014-Dec-11 22:32N 51°16' E 004°21'0 0.0
2014-Dec-11 21:32N 51°16' E 004°21'0 0.0
2014-Dec-11 20:32N 51°16' E 004°21'0 0.0
2014-Dec-11 19:32N 51°16' E 004°21'0 0.0
2014-Dec-11 18:32N 51°16' E 004°21'0 0.0
2014-Dec-11 17:29N 51°16' E 004°21'0 0.0
2014-Dec-11 16:32N 51°16' E 004°21'0 0.0
2014-Dec-11 15:32N 51°16' E 004°21'0 0.0
2014-Dec-11 14:32N 51°16' E 004°21'0 0.0
2014-Dec-11 13:32N 51°16' E 004°21'0 0.0
2014-Dec-11 12:29N 51°16' E 004°21'0 0.0
2014-Dec-11 11:32N 51°16' E 004°21'0 0.0
2014-Dec-11 10:32N 51°16' E 004°21'0 0.0
2014-Dec-11 09:33N 51°16' E 004°21'5 5.1
2014-Dec-11 08:34N 51°21' E 004°17'0 0.0
2014-Dec-11 07:34N 51°21' E 004°17'5 4.9
2014-Dec-11 06:34N 51°24' E 004°11'8 8.3
2014-Dec-11 05:34N 51°25' E 003°58'10 9.8
2014-Dec-11 04:34N 51°24' E 003°42'9 8.9
2014-Dec-11 03:33N 51°25' E 003°28'1412.9
2014-Dec-11 02:29N 51°24' E 003°06'1314.2
2014-Dec-11 01:34N 51°22' E 002°46'5 4.7
2014-Dec-11 00:33N 51°26' E 002°41'3 2.4
2014-Dec-10 23:26N 51°26' E 002°37'0 0.0
2014-Dec-10 22:14N 51°26' E 002°37'0 0.0
2014-Dec-10 21:26N 51°26' E 002°37'0 0.0
2014-Dec-10 20:32N 51°26' E 002°37'0 0.1
2014-Dec-10 19:32N 51°26' E 002°37'0 0.0
2014-Dec-10 18:32N 51°26' E 002°37'3 2.9
2014-Dec-10 17:33N 51°26' E 002°33'1111.2
2014-Dec-10 16:33N 51°19' E 002°19'1111.3
2014-Dec-10 15:33N 51°23' E 002°01'1111.3
2014-Dec-10 14:33N 51°30' E 001°47'1312.6
2014-Dec-10 13:33N 51°28' E 001°27'1110.9
2014-Dec-10 12:33N 51°29' E 001°10'1212.4
2014-Dec-10 11:33N 51°29' E 000°50'1211.7
2014-Dec-10 10:33N 51°30' E 000°31'9 8.9
2014-Dec-10 09:33N 51°28' E 000°18'1 1.0
2014-Dec-10 08:32N 51°28' E 000°16'0 0.0
2014-Dec-10 07:32N 51°28' E 000°16'0 0.0
2014-Dec-10 06:32N 51°28' E 000°16'0 0.0
2014-Dec-10 05:32N 51°28' E 000°16'0 0.0
2014-Dec-10 04:32N 51°28' E 000°16'0 0.0
2014-Dec-10 03:32N 51°28' E 000°16'0 0.0
2014-Dec-10 02:32N 51°28' E 000°16'0 0.0
2014-Dec-10 01:32N 51°28' E 000°16'0 0.0
2014-Dec-10 00:32N 51°28' E 000°16'0 0.0
2014-Dec-09 23:32N 51°28' E 000°16'0 0.0
2014-Dec-09 22:32N 51°28' E 000°16'0 0.0
2014-Dec-09 21:32N 51°28' E 000°16'0 0.0
2014-Dec-09 20:32N 51°28' E 000°16'0 0.0
2014-Dec-09 19:32N 51°28' E 000°16'0 0.0
2014-Dec-09 18:29N 51°28' E 000°16'0 0.0
2014-Dec-09 17:32N 51°28' E 000°16'0 0.0
2014-Dec-09 16:32N 51°28' E 000°16'0 0.0
2014-Dec-09 15:32N 51°28' E 000°16'0 0.0
2014-Dec-09 14:32N 51°28' E 000°16'0 0.0
2014-Dec-09 13:32N 51°28' E 000°16'0 0.0
2014-Dec-09 12:32N 51°28' E 000°16'0 0.0
2014-Dec-09 11:32N 51°28' E 000°16'0 0.0
2014-Dec-09 10:32N 51°28' E 000°16'0 0.0
2014-Dec-09 09:32N 51°28' E 000°16'0 0.0
2014-Dec-09 08:32N 51°28' E 000°16'0 0.0
2014-Dec-09 07:32N 51°28' E 000°16'0 0.0
2014-Dec-09 06:32N 51°28' E 000°16'0 0.0
2014-Dec-09 05:32N 51°28' E 000°16'0 0.0
2014-Dec-09 04:32N 51°28' E 000°16'0 0.0
2014-Dec-09 03:32N 51°28' E 000°16'0 0.0
2014-Dec-09 02:32N 51°28' E 000°16'0 0.0
2014-Dec-09 01:32N 51°28' E 000°16'0 0.0
2014-Dec-09 00:32N 51°28' E 000°16'0 0.0
2014-Dec-08 23:32N 51°28' E 000°16'0 0.0
2014-Dec-08 22:32N 51°28' E 000°16'0 0.0
2014-Dec-08 21:32N 51°28' E 000°16'0 0.0
2014-Dec-08 20:32N 51°28' E 000°16'0 0.0
2014-Dec-08 19:32N 51°28' E 000°16'0 0.0
2014-Dec-08 18:32N 51°28' E 000°16'0 0.0
2014-Dec-08 17:32N 51°28' E 000°16'0 0.0
2014-Dec-08 16:32N 51°28' E 000°16'0 0.0
2014-Dec-08 15:32N 51°28' E 000°16'0 0.0
2014-Dec-08 14:32N 51°28' E 000°16'0 0.0
2014-Dec-08 13:32N 51°28' E 000°16'0 0.0
2014-Dec-08 12:32N 51°28' E 000°16'0 0.0
2014-Dec-08 11:32N 51°28' E 000°16'0 0.0
2014-Dec-08 10:32N 51°28' E 000°16'0 0.0
2014-Dec-08 09:32N 51°28' E 000°16'0 0.0
2014-Dec-08 08:32N 51°28' E 000°16'0 0.0
2014-Dec-08 07:32N 51°28' E 000°16'0 0.0
2014-Dec-08 06:29N 51°28' E 000°16'0 0.0
2014-Dec-08 05:32N 51°28' E 000°16'0 0.0
2014-Dec-08 04:32N 51°28' E 000°16'0 0.0
2014-Dec-08 03:32N 51°28' E 000°16'0 0.0
2014-Dec-08 02:32N 51°28' E 000°16'0 0.0
2014-Dec-08 01:32N 51°28' E 000°16'0 0.0
2014-Dec-08 00:32N 51°28' E 000°16'0 0.0
2014-Dec-07 23:34N 51°28' E 000°16'3 2.6
2014-Dec-07 22:34N 51°27' E 000°20'8 8.0
2014-Dec-07 21:33N 51°30' E 000°32'1413.6
2014-Dec-07 20:33N 51°29' E 000°54'1212.1
2014-Dec-07 19:32N 51°34' E 001°12'1211.7
2014-Dec-07 18:33N 51°41' E 001°26'9 8.8
2014-Dec-07 17:33N 51°50' E 001°30'0 0.4
2014-Dec-07 16:31N 51°50' E 001°31'0 0.0
2014-Dec-07 15:31N 51°50' E 001°31'0 0.0
2014-Dec-07 14:31N 51°50' E 001°31'0 0.0
2014-Dec-07 13:31N 51°50' E 001°31'0 0.0
2014-Dec-07 12:31N 51°50' E 001°31'0 0.1
2014-Dec-07 11:31N 51°50' E 001°31'0 0.1
2014-Dec-07 10:31N 51°50' E 001°30'0 0.0
2014-Dec-07 09:31N 51°50' E 001°30'0 0.0
2014-Dec-07 08:31N 51°50' E 001°30'0 0.0
2014-Dec-07 07:31N 51°50' E 001°30'0 0.3
2014-Dec-07 06:31N 51°50' E 001°31'0 0.0
2014-Dec-07 05:31N 51°50' E 001°31'0 0.0
2014-Dec-07 04:31N 51°50' E 001°31'0 0.0
2014-Dec-07 03:31N 51°50' E 001°31'0 0.0
2014-Dec-07 02:31N 51°50' E 001°31'0 0.0
2014-Dec-07 01:31N 51°50' E 001°31'0 0.0
2014-Dec-07 00:31N 51°50' E 001°31'0 0.2
2014-Dec-06 23:31N 51°50' E 001°31'0 0.0
2014-Dec-06 22:31N 51°50' E 001°30'0 0.0
2014-Dec-06 21:31N 51°50' E 001°30'0 0.0
2014-Dec-06 20:31N 51°50' E 001°30'0 0.0
2014-Dec-06 19:31N 51°50' E 001°30'0 0.1
2014-Dec-06 18:31N 51°50' E 001°31'0 0.2
2014-Dec-06 17:31N 51°50' E 001°31'0 0.0
2014-Dec-06 16:31N 51°50' E 001°31'0 0.0
2014-Dec-06 15:31N 51°50' E 001°31'0 0.0
2014-Dec-06 14:31N 51°50' E 001°31'0 0.0
2014-Dec-06 13:31N 51°50' E 001°31'0 0.0
2014-Dec-06 12:31N 51°50' E 001°31'0 0.3
2014-Dec-06 11:31N 51°50' E 001°30'0 0.1
2014-Dec-06 10:31N 51°50' E 001°30'0 0.0
2014-Dec-06 09:31N 51°50' E 001°30'3 3.5
2014-Dec-06 08:34N 51°51' E 001°36'9 8.5
2014-Dec-06 07:33N 51°50' E 001°49'1111.3
2014-Dec-06 06:33N 51°54' E 002°07'39612.3
2014-Dec-04 22:27N 57°22' E 008°28'1112.5
2014-Dec-04 21:32N 57°29' E 008°45'1212.5
2014-Dec-04 20:33N 57°36' E 009°04'1212.4
2014-Dec-04 19:33N 57°42' E 009°23'1212.0
2014-Dec-04 18:33N 57°48' E 009°44'1412.3
2014-Dec-04 17:23N 57°50' E 010°11'1012.7
2014-Dec-04 16:33N 57°50' E 010°30'1211.7
2014-Dec-04 15:33N 57°46' E 010°51'1212.1
2014-Dec-04 14:33N 57°37' E 011°07'1312.7
2014-Dec-04 13:34N 57°29' E 011°24'1212.0
2014-Dec-04 12:33N 57°18' E 011°32'1212.3
2014-Dec-04 11:33N 57°06' E 011°40'1212.2
2014-Dec-04 10:33N 56°54' E 011°47'1111.2
2014-Dec-04 09:33N 56°44' E 011°51'1212.1
2014-Dec-04 08:33N 56°36' E 011°35'1212.4
2014-Dec-04 07:33N 56°27' E 011°19'1111.0
2014-Dec-04 06:33N 56°19' E 011°06'1212.1
2014-Dec-04 05:32N 56°06' E 011°06'1311.4
2014-Dec-04 04:26N 55°55' E 010°57'1111.9
2014-Dec-04 03:32N 55°45' E 010°48'1711.7
2014-Dec-04 02:04N 55°28' E 010°55'712.3
2014-Dec-04 01:28N 55°22' E 011°02'  
Track history (hours):
 
Tides and Currents Weather Stations Pressure Air Temp Water Temp Dewpoint Dewpoint Depression Visibility Wind Speed Wind Dir Waves Ship Positions

Mount Hope

Last reported at 2014-Dec-14 01:07 UTC. Time now 2014-Dec-21 04:44 UTC.
Position N 50°25' W 000°28'.

Length 182 m; draft 11.8 m.

Type: Tanker. MMSI: 210137000.

Date/timePositionNaut miles runAvg speedWind from/ knotsBaromVisibWave heightAir tempDewpointWater temp
2014-Dec-14 01:07N 50°25' W 000°28'1911.6
2014-Dec-13 23:30N 50°30' E 000°00'1212.5
2014-Dec-13 22:33N 50°33' E 000°18'1313.3
2014-Dec-13 21:33N 50°38' E 000°37'1413.8
2014-Dec-13 20:33N 50°47' E 000°55'1413.6
2014-Dec-13 19:33N 50°56' E 001°11'1212.5
2014-Dec-13 18:33N 51°04' E 001°26'1111.3
2014-Dec-13 17:33N 51°11' E 001°40'1111.3
2014-Dec-13 16:33N 51°19' E 001°52'10 9.8
2014-Dec-13 15:33N 51°23' E 002°06'1211.8
2014-Dec-13 14:33N 51°22' E 002°25'1212.5
2014-Dec-13 13:33N 51°22' E 002°45'1212.0
2014-Dec-13 12:32N 51°25' E 003°04'1313.3
2014-Dec-13 11:33N 51°25' E 003°25'1110.9
2014-Dec-13 10:34N 51°25' E 003°42'9 9.4
2014-Dec-13 09:34N 51°24' E 003°57'8 8.3
2014-Dec-13 08:34N 51°24' E 004°10'5 5.0
2014-Dec-13 07:34N 51°21' E 004°17'0 0.4
2014-Dec-13 06:33N 51°21' E 004°18'5 4.9
2014-Dec-13 05:33N 51°16' E 004°21'0 0.1
2014-Dec-13 04:29N 51°16' E 004°21'0 0.0
2014-Dec-13 03:29N 51°16' E 004°21'0 0.0
2014-Dec-13 02:32N 51°16' E 004°21'0 0.0
2014-Dec-13 01:32N 51°16' E 004°21'0 0.0
2014-Dec-13 00:32N 51°16' E 004°21'0 0.0
2014-Dec-12 23:32N 51°16' E 004°21'0 0.0
2014-Dec-12 22:32N 51°16' E 004°21'0 0.0
2014-Dec-12 21:32N 51°16' E 004°21'0 0.0
2014-Dec-12 20:29N 51°16' E 004°21'0 0.0
2014-Dec-12 19:32N 51°16' E 004°21'0 0.0
2014-Dec-12 18:32N 51°16' E 004°21'0 0.0
2014-Dec-12 17:32N 51°16' E 004°21'0 0.0
2014-Dec-12 16:32N 51°16' E 004°21'0 0.0
2014-Dec-12 15:32N 51°16' E 004°21'0 0.0
2014-Dec-12 14:32N 51°16' E 004°21'0 0.0
2014-Dec-12 13:32N 51°16' E 004°21'0 0.0
2014-Dec-12 12:32N 51°16' E 004°21'0 0.0
2014-Dec-12 11:32N 51°16' E 004°21'0 0.0
2014-Dec-12 10:29N 51°16' E 004°21'0 0.0
2014-Dec-12 09:32N 51°16' E 004°21'0 0.0
2014-Dec-12 08:29N 51°16' E 004°21'0 0.0
2014-Dec-12 07:32N 51°16' E 004°21'0 0.0
2014-Dec-12 06:29N 51°16' E 004°21'0 0.0
2014-Dec-12 05:29N 51°16' E 004°21'0 0.0
2014-Dec-12 04:32N 51°16' E 004°21'0 0.0
2014-Dec-12 03:32N 51°16' E 004°21'0 0.0
2014-Dec-12 02:32N 51°16' E 004°21'0 0.0
2014-Dec-12 01:32N 51°16' E 004°21'0 0.0
2014-Dec-12 00:32N 51°16' E 004°21'0 0.0
2014-Dec-11 23:32N 51°16' E 004°21'0 0.0
2014-Dec-11 22:32N 51°16' E 004°21'0 0.0
2014-Dec-11 21:32N 51°16' E 004°21'0 0.0
2014-Dec-11 20:32N 51°16' E 004°21'0 0.0
2014-Dec-11 19:32N 51°16' E 004°21'0 0.0
2014-Dec-11 18:32N 51°16' E 004°21'0 0.0
2014-Dec-11 17:29N 51°16' E 004°21'0 0.0
2014-Dec-11 16:32N 51°16' E 004°21'0 0.0
2014-Dec-11 15:32N 51°16' E 004°21'0 0.0
2014-Dec-11 14:32N 51°16' E 004°21'0 0.0
2014-Dec-11 13:32N 51°16' E 004°21'0 0.0
2014-Dec-11 12:29N 51°16' E 004°21'0 0.0
2014-Dec-11 11:32N 51°16' E 004°21'0 0.0
2014-Dec-11 10:32N 51°16' E 004°21'0 0.0
2014-Dec-11 09:33N 51°16' E 004°21'5 5.1
2014-Dec-11 08:34N 51°21' E 004°17'0 0.0
2014-Dec-11 07:34N 51°21' E 004°17'5 4.9
2014-Dec-11 06:34N 51°24' E 004°11'8 8.3
2014-Dec-11 05:34N 51°25' E 003°58'10 9.8
2014-Dec-11 04:34N 51°24' E 003°42'9 8.9
2014-Dec-11 03:33N 51°25' E 003°28'1412.9
2014-Dec-11 02:29N 51°24' E 003°06'1314.2
2014-Dec-11 01:34N 51°22' E 002°46'5 4.7
2014-Dec-11 00:33N 51°26' E 002°41'3 2.4
2014-Dec-10 23:26N 51°26' E 002°37'0 0.0
2014-Dec-10 22:14N 51°26' E 002°37'0 0.0
2014-Dec-10 21:26N 51°26' E 002°37'0 0.0
2014-Dec-10 20:32N 51°26' E 002°37'0 0.1
2014-Dec-10 19:32N 51°26' E 002°37'0 0.0
2014-Dec-10 18:32N 51°26' E 002°37'3 2.9
2014-Dec-10 17:33N 51°26' E 002°33'1111.2
2014-Dec-10 16:33N 51°19' E 002°19'1111.3
2014-Dec-10 15:33N 51°23' E 002°01'1111.3
2014-Dec-10 14:33N 51°30' E 001°47'1312.6
2014-Dec-10 13:33N 51°28' E 001°27'1110.9
2014-Dec-10 12:33N 51°29' E 001°10'1212.4
2014-Dec-10 11:33N 51°29' E 000°50'1211.7
2014-Dec-10 10:33N 51°30' E 000°31'9 8.9
2014-Dec-10 09:33N 51°28' E 000°18'1 1.0
2014-Dec-10 08:32N 51°28' E 000°16'0 0.0
2014-Dec-10 07:32N 51°28' E 000°16'0 0.0
2014-Dec-10 06:32N 51°28' E 000°16'0 0.0
2014-Dec-10 05:32N 51°28' E 000°16'0 0.0
2014-Dec-10 04:32N 51°28' E 000°16'0 0.0
2014-Dec-10 03:32N 51°28' E 000°16'0 0.0
2014-Dec-10 02:32N 51°28' E 000°16'0 0.0
2014-Dec-10 01:32N 51°28' E 000°16'0 0.0
2014-Dec-10 00:32N 51°28' E 000°16'0 0.0
2014-Dec-09 23:32N 51°28' E 000°16'0 0.0
2014-Dec-09 22:32N 51°28' E 000°16'0 0.0
2014-Dec-09 21:32N 51°28' E 000°16'0 0.0
2014-Dec-09 20:32N 51°28' E 000°16'0 0.0
2014-Dec-09 19:32N 51°28' E 000°16'0 0.0
2014-Dec-09 18:29N 51°28' E 000°16'0 0.0
2014-Dec-09 17:32N 51°28' E 000°16'0 0.0
2014-Dec-09 16:32N 51°28' E 000°16'0 0.0
2014-Dec-09 15:32N 51°28' E 000°16'0 0.0
2014-Dec-09 14:32N 51°28' E 000°16'0 0.0
2014-Dec-09 13:32N 51°28' E 000°16'0 0.0
2014-Dec-09 12:32N 51°28' E 000°16'0 0.0
2014-Dec-09 11:32N 51°28' E 000°16'0 0.0
2014-Dec-09 10:32N 51°28' E 000°16'0 0.0
2014-Dec-09 09:32N 51°28' E 000°16'0 0.0
2014-Dec-09 08:32N 51°28' E 000°16'0 0.0
2014-Dec-09 07:32N 51°28' E 000°16'0 0.0
2014-Dec-09 06:32N 51°28' E 000°16'0 0.0
2014-Dec-09 05:32N 51°28' E 000°16'0 0.0
2014-Dec-09 04:32N 51°28' E 000°16'0 0.0
2014-Dec-09 03:32N 51°28' E 000°16'0 0.0
2014-Dec-09 02:32N 51°28' E 000°16'0 0.0
2014-Dec-09 01:32N 51°28' E 000°16'0 0.0
2014-Dec-09 00:32N 51°28' E 000°16'0 0.0
2014-Dec-08 23:32N 51°28' E 000°16'0 0.0
2014-Dec-08 22:32N 51°28' E 000°16'0 0.0
2014-Dec-08 21:32N 51°28' E 000°16'0 0.0
2014-Dec-08 20:32N 51°28' E 000°16'0 0.0
2014-Dec-08 19:32N 51°28' E 000°16'0 0.0
2014-Dec-08 18:32N 51°28' E 000°16'0 0.0
2014-Dec-08 17:32N 51°28' E 000°16'0 0.0
2014-Dec-08 16:32N 51°28' E 000°16'0 0.0
2014-Dec-08 15:32N 51°28' E 000°16'0 0.0
2014-Dec-08 14:32N 51°28' E 000°16'0 0.0
2014-Dec-08 13:32N 51°28' E 000°16'0 0.0
2014-Dec-08 12:32N 51°28' E 000°16'0 0.0
2014-Dec-08 11:32N 51°28' E 000°16'0 0.0
2014-Dec-08 10:32N 51°28' E 000°16'0 0.0
2014-Dec-08 09:32N 51°28' E 000°16'0 0.0
2014-Dec-08 08:32N 51°28' E 000°16'0 0.0
2014-Dec-08 07:32N 51°28' E 000°16'0 0.0
2014-Dec-08 06:29N 51°28' E 000°16'0 0.0
2014-Dec-08 05:32N 51°28' E 000°16'0 0.0
2014-Dec-08 04:32N 51°28' E 000°16'0 0.0
2014-Dec-08 03:32N 51°28' E 000°16'0 0.0
2014-Dec-08 02:32N 51°28' E 000°16'0 0.0
2014-Dec-08 01:32N 51°28' E 000°16'0 0.0
2014-Dec-08 00:32N 51°28' E 000°16'0 0.0
2014-Dec-07 23:34N 51°28' E 000°16'3 2.6
2014-Dec-07 22:34N 51°27' E 000°20'8 8.0
2014-Dec-07 21:33N 51°30' E 000°32'1413.6
2014-Dec-07 20:33N 51°29' E 000°54'1212.1
2014-Dec-07 19:32N 51°34' E 001°12'1211.7
2014-Dec-07 18:33N 51°41' E 001°26'9 8.8
2014-Dec-07 17:33N 51°50' E 001°30'0 0.4
2014-Dec-07 16:31N 51°50' E 001°31'0 0.0
2014-Dec-07 15:31N 51°50' E 001°31'0 0.0
2014-Dec-07 14:31N 51°50' E 001°31'0 0.0
2014-Dec-07 13:31N 51°50' E 001°31'0 0.0
2014-Dec-07 12:31N 51°50' E 001°31'0 0.1
2014-Dec-07 11:31N 51°50' E 001°31'0 0.1
2014-Dec-07 10:31N 51°50' E 001°30'0 0.0
2014-Dec-07 09:31N 51°50' E 001°30'0 0.0
2014-Dec-07 08:31N 51°50' E 001°30'0 0.0
2014-Dec-07 07:31N 51°50' E 001°30'0 0.3
2014-Dec-07 06:31N 51°50' E 001°31'0 0.0
2014-Dec-07 05:31N 51°50' E 001°31'0 0.0
2014-Dec-07 04:31N 51°50' E 001°31'0 0.0
2014-Dec-07 03:31N 51°50' E 001°31'0 0.0
2014-Dec-07 02:31N 51°50' E 001°31'0 0.0
2014-Dec-07 01:31N 51°50' E 001°31'0 0.0
2014-Dec-07 00:31N 51°50' E 001°31'0 0.2
2014-Dec-06 23:31N 51°50' E 001°31'0 0.0
2014-Dec-06 22:31N 51°50' E 001°30'0 0.0
2014-Dec-06 21:31N 51°50' E 001°30'0 0.0
2014-Dec-06 20:31N 51°50' E 001°30'0 0.0
2014-Dec-06 19:31N 51°50' E 001°30'0 0.1
2014-Dec-06 18:31N 51°50' E 001°31'0 0.2
2014-Dec-06 17:31N 51°50' E 001°31'0 0.0
2014-Dec-06 16:31N 51°50' E 001°31'0 0.0
2014-Dec-06 15:31N 51°50' E 001°31'0 0.0
2014-Dec-06 14:31N 51°50' E 001°31'0 0.0
2014-Dec-06 13:31N 51°50' E 001°31'0 0.0
2014-Dec-06 12:31N 51°50' E 001°31'0 0.3
2014-Dec-06 11:31N 51°50' E 001°30'0 0.1
2014-Dec-06 10:31N 51°50' E 001°30'0 0.0
2014-Dec-06 09:31N 51°50' E 001°30'3 3.5
2014-Dec-06 08:34N 51°51' E 001°36'9 8.5
2014-Dec-06 07:33N 51°50' E 001°49'1111.3
2014-Dec-06 06:33N 51°54' E 002°07'39612.3
2014-Dec-04 22:27N 57°22' E 008°28'1112.5
2014-Dec-04 21:32N 57°29' E 008°45'1212.5
2014-Dec-04 20:33N 57°36' E 009°04'1212.4
2014-Dec-04 19:33N 57°42' E 009°23'1212.0
2014-Dec-04 18:33N 57°48' E 009°44'1412.3
2014-Dec-04 17:23N 57°50' E 010°11'1012.7
2014-Dec-04 16:33N 57°50' E 010°30'1211.7
2014-Dec-04 15:33N 57°46' E 010°51'1212.1
2014-Dec-04 14:33N 57°37' E 011°07'1312.7
2014-Dec-04 13:34N 57°29' E 011°24'1212.0
2014-Dec-04 12:33N 57°18' E 011°32'1212.3
2014-Dec-04 11:33N 57°06' E 011°40'1212.2
2014-Dec-04 10:33N 56°54' E 011°47'1111.2
2014-Dec-04 09:33N 56°44' E 011°51'1212.1
2014-Dec-04 08:33N 56°36' E 011°35'1212.4
2014-Dec-04 07:33N 56°27' E 011°19'1111.0
2014-Dec-04 06:33N 56°19' E 011°06'1212.1
2014-Dec-04 05:32N 56°06' E 011°06'1311.4
2014-Dec-04 04:26N 55°55' E 010°57'1111.9
2014-Dec-04 03:32N 55°45' E 010°48'1711.7
2014-Dec-04 02:04N 55°28' E 010°55'712.3
2014-Dec-04 01:28N 55°22' E 011°02'  

Dump ship's entire track history